Terminal Aerodrome Forecast
Issued by NWS

Home | Current Version | Previous Version | Text Only | Print | Product List | Glossary Off
Versions: 1 2 3 4 5 6 7 8 9 10 11 12 13 14 15 16 17 18 19 20 21 22 23 24 25

639
FTUS43 KLOT 011122
TAFDPA
TAF
KDPA 011122Z 0112/0212 26013G20KT P6SM -SHSN OVC009
     FM011500 27013G21KT P6SM OVC025
     FM020100 29007KT P6SM OVC025=

USA.gov is the U.S. government's official web portal to all federal, state and local government web resources and services.